Terminal Aerodrome Forecast
Issued by NWS

Home | Current Version | Previous Version | Graphics & Text | Print | Product List | Glossary On
Versions: 1 2 3 4 5 6 7 8 9 10 11 12 13 14 15 16 17
000
FTUS43 KOAX 291415 AAA
TAFCDR
TAF AMD
KCDR 291415Z 2914/3012 05006KT P6SM OVC018
      TEMPO 2914/2916 OVC006
     FM291600 05010KT P6SM OVC020
     FM292200 06012KT 3SM -RA BR OVC010=

USA.gov is the U.S. government's official web portal to all federal, state and local government web resources and services.